sensor_id;sensor_type;location;lat;lon;timestamp;P1;durP1;ratioP1;P2;durP2;ratioP2
13238;SDS011;6686;51.292;4.166;2023-05-16T00:00:55;12.50;;;2.77;;
13238;SDS011;6686;51.292;4.166;2023-05-16T00:03:41;12.20;;;3.17;;
13238;SDS011;6686;51.292;4.166;2023-05-16T00:06:28;12.97;;;2.87;;
13238;SDS011;6686;51.292;4.166;2023-05-16T00:09:14;10.93;;;2.67;;
13238;SDS011;6686;51.292;4.166;2023-05-16T00:12:00;10.93;;;2.87;;
13238;SDS011;6686;51.292;4.166;2023-05-16T00:14:45;11.00;;;3.13;;
13238;SDS011;6686;51.292;4.166;2023-05-16T00:17:31;13.97;;;3.00;;
13238;SDS011;6686;51.292;4.166;2023-05-16T00:20:17;10.30;;;3.07;;
13238;SDS011;6686;51.292;4.166;2023-05-16T00:23:03;5.90;;;2.50;;
13238;SDS011;6686;51.292;4.166;2023-05-16T00:25:49;8.50;;;2.60;;
13238;SDS011;6686;51.292;4.166;2023-05-16T00:28:35;10.63;;;2.63;;
13238;SDS011;6686;51.292;4.166;2023-05-16T00:31:21;14.63;;;3.00;;
13238;SDS011;6686;51.292;4.166;2023-05-16T00:34:07;11.30;;;3.10;;
13238;SDS011;6686;51.292;4.166;2023-05-16T00:36:53;13.80;;;2.77;;
13238;SDS011;6686;51.292;4.166;2023-05-16T00:39:39;13.00;;;3.10;;
13238;SDS011;6686;51.292;4.166;2023-05-16T00:42:25;10.00;;;3.17;;
13238;SDS011;6686;51.292;4.166;2023-05-16T00:45:11;9.43;;;2.43;;
13238;SDS011;6686;51.292;4.166;2023-05-16T00:47:58;10.63;;;2.73;;
13238;SDS011;6686;51.292;4.166;2023-05-16T00:50:44;7.87;;;2.53;;
13238;SDS011;6686;51.292;4.166;2023-05-16T00:53:30;10.13;;;3.00;;
13238;SDS011;6686;51.292;4.166;2023-05-16T00:56:16;9.93;;;2.60;;
13238;SDS011;6686;51.292;4.166;2023-05-16T00:59:02;8.27;;;2.63;;
13238;SDS011;6686;51.292;4.166;2023-05-16T01:01:48;10.00;;;2.90;;
13238;SDS011;6686;51.292;4.166;2023-05-16T01:04:34;11.13;;;2.63;;
13238;SDS011;6686;51.292;4.166;2023-05-16T01:07:19;11.60;;;2.97;;
13238;SDS011;6686;51.292;4.166;2023-05-16T01:10:05;10.77;;;3.13;;
13238;SDS011;6686;51.292;4.166;2023-05-16T01:16:39;9.60;;;2.90;;
13238;SDS011;6686;51.292;4.166;2023-05-16T01:22:10;11.80;;;2.77;;
13238;SDS011;6686;51.292;4.166;2023-05-16T01:28:06;8.83;;;2.80;;
13238;SDS011;6686;51.292;4.166;2023-05-16T01:30:52;6.63;;;2.10;;
13238;SDS011;6686;51.292;4.166;2023-05-16T01:33:38;10.30;;;2.47;;
13238;SDS011;6686;51.292;4.166;2023-05-16T01:39:32;8.33;;;2.40;;
13238;SDS011;6686;51.292;4.166;2023-05-16T01:42:29;6.90;;;2.50;;
13238;SDS011;6686;51.292;4.166;2023-05-16T01:45:17;7.87;;;2.80;;
13238;SDS011;6686;51.292;4.166;2023-05-16T01:48:07;6.90;;;2.10;;
13238;SDS011;6686;51.292;4.166;2023-05-16T01:50:53;8.43;;;2.57;;
13238;SDS011;6686;51.292;4.166;2023-05-16T01:53:38;7.67;;;2.60;;
13238;SDS011;6686;51.292;4.166;2023-05-16T01:56:24;6.30;;;2.17;;
13238;SDS011;6686;51.292;4.166;2023-05-16T01:59:10;9.83;;;2.63;;
13238;SDS011;6686;51.292;4.166;2023-05-16T02:01:56;5.77;;;2.30;;
13238;SDS011;6686;51.292;4.166;2023-05-16T02:04:42;12.40;;;2.80;;
13238;SDS011;6686;51.292;4.166;2023-05-16T02:07:27;9.73;;;2.83;;
13238;SDS011;6686;51.292;4.166;2023-05-16T02:10:13;6.60;;;2.50;;
13238;SDS011;6686;51.292;4.166;2023-05-16T02:12:59;8.93;;;2.43;;
13238;SDS011;6686;51.292;4.166;2023-05-16T02:15:45;9.70;;;2.70;;
13238;SDS011;6686;51.292;4.166;2023-05-16T02:18:31;10.73;;;3.50;;
13238;SDS011;6686;51.292;4.166;2023-05-16T02:21:17;9.93;;;3.28;;
13238;SDS011;6686;51.292;4.166;2023-05-16T02:24:02;8.37;;;2.20;;
13238;SDS011;6686;51.292;4.166;2023-05-16T02:26:48;11.23;;;2.53;;
13238;SDS011;6686;51.292;4.166;2023-05-16T02:29:34;9.50;;;2.80;;
13238;SDS011;6686;51.292;4.166;2023-05-16T02:32:20;10.48;;;2.95;;
13238;SDS011;6686;51.292;4.166;2023-05-16T02:35:06;6.50;;;2.23;;
13238;SDS011;6686;51.292;4.166;2023-05-16T02:37:52;8.73;;;2.57;;
13238;SDS011;6686;51.292;4.166;2023-05-16T02:40:38;9.07;;;2.50;;
13238;SDS011;6686;51.292;4.166;2023-05-16T02:43:23;5.57;;;2.00;;
13238;SDS011;6686;51.292;4.166;2023-05-16T02:46:25;11.17;;;2.83;;
13238;SDS011;6686;51.292;4.166;2023-05-16T02:49:13;9.33;;;3.03;;
13238;SDS011;6686;51.292;4.166;2023-05-16T02:51:59;10.00;;;2.20;;
13238;SDS011;6686;51.292;4.166;2023-05-16T02:54:46;9.33;;;2.43;;
13238;SDS011;6686;51.292;4.166;2023-05-16T02:57:31;3.77;;;1.90;;
13238;SDS011;6686;51.292;4.166;2023-05-16T03:00:17;7.00;;;2.20;;
13238;SDS011;6686;51.292;4.166;2023-05-16T03:03:03;8.73;;;2.60;;
13238;SDS011;6686;51.292;4.166;2023-05-16T03:05:49;6.57;;;2.10;;
13238;SDS011;6686;51.292;4.166;2023-05-16T03:08:35;8.97;;;2.37;;
13238;SDS011;6686;51.292;4.166;2023-05-16T03:11:21;5.77;;;2.40;;
13238;SDS011;6686;51.292;4.166;2023-05-16T03:14:07;5.70;;;2.00;;
13238;SDS011;6686;51.292;4.166;2023-05-16T03:16:53;7.87;;;2.10;;
13238;SDS011;6686;51.292;4.166;2023-05-16T03:19:39;12.90;;;2.73;;
13238;SDS011;6686;51.292;4.166;2023-05-16T03:22:25;10.87;;;2.40;;
13238;SDS011;6686;51.292;4.166;2023-05-16T03:25:11;9.80;;;2.33;;
13238;SDS011;6686;51.292;4.166;2023-05-16T03:27:56;9.37;;;2.23;;
13238;SDS011;6686;51.292;4.166;2023-05-16T03:30:42;8.57;;;2.30;;
13238;SDS011;6686;51.292;4.166;2023-05-16T03:33:28;13.20;;;2.50;;
13238;SDS011;6686;51.292;4.166;2023-05-16T03:36:14;10.67;;;2.30;;
13238;SDS011;6686;51.292;4.166;2023-05-16T03:38:59;9.17;;;2.30;;
13238;SDS011;6686;51.292;4.166;2023-05-16T03:41:45;8.30;;;2.43;;
13238;SDS011;6686;51.292;4.166;2023-05-16T03:44:31;6.37;;;2.20;;
13238;SDS011;6686;51.292;4.166;2023-05-16T03:47:17;6.13;;;2.00;;
13238;SDS011;6686;51.292;4.166;2023-05-16T03:50:03;12.80;;;2.50;;
13238;SDS011;6686;51.292;4.166;2023-05-16T03:52:49;10.80;;;2.70;;
13238;SDS011;6686;51.292;4.166;2023-05-16T03:55:35;9.33;;;2.03;;
13238;SDS011;6686;51.292;4.166;2023-05-16T03:58:20;6.10;;;2.10;;
13238;SDS011;6686;51.292;4.166;2023-05-16T04:01:06;8.10;;;2.37;;
13238;SDS011;6686;51.292;4.166;2023-05-16T04:03:54;8.47;;;2.30;;
13238;SDS011;6686;51.292;4.166;2023-05-16T04:06:39;10.02;;;2.78;;
13238;SDS011;6686;51.292;4.166;2023-05-16T04:09:25;6.27;;;2.10;;
13238;SDS011;6686;51.292;4.166;2023-05-16T04:12:11;6.20;;;1.93;;
13238;SDS011;6686;51.292;4.166;2023-05-16T04:14:57;7.20;;;2.43;;
13238;SDS011;6686;51.292;4.166;2023-05-16T04:17:43;7.73;;;2.03;;
13238;SDS011;6686;51.292;4.166;2023-05-16T04:20:28;4.93;;;1.97;;
13238;SDS011;6686;51.292;4.166;2023-05-16T04:23:17;6.90;;;2.17;;
13238;SDS011;6686;51.292;4.166;2023-05-16T04:26:03;9.77;;;1.87;;
13238;SDS011;6686;51.292;4.166;2023-05-16T04:28:49;8.67;;;1.90;;
13238;SDS011;6686;51.292;4.166;2023-05-16T04:31:34;4.63;;;1.97;;
13238;SDS011;6686;51.292;4.166;2023-05-16T04:34:20;9.13;;;2.10;;
13238;SDS011;6686;51.292;4.166;2023-05-16T04:37:06;8.00;;;2.27;;
13238;SDS011;6686;51.292;4.166;2023-05-16T04:39:52;6.33;;;2.10;;
13238;SDS011;6686;51.292;4.166;2023-05-16T04:42:41;8.82;;;2.47;;
13238;SDS011;6686;51.292;4.166;2023-05-16T04:45:27;7.30;;;2.33;;
13238;SDS011;6686;51.292;4.166;2023-05-16T04:48:13;10.63;;;2.23;;
13238;SDS011;6686;51.292;4.166;2023-05-16T04:50:59;7.30;;;2.03;;
13238;SDS011;6686;51.292;4.166;2023-05-16T04:53:44;8.57;;;2.60;;
13238;SDS011;6686;51.292;4.166;2023-05-16T04:56:31;8.93;;;2.10;;
13238;SDS011;6686;51.292;4.166;2023-05-16T04:59:17;5.43;;;2.00;;
13238;SDS011;6686;51.292;4.166;2023-05-16T05:02:03;7.43;;;2.40;;
13238;SDS011;6686;51.292;4.166;2023-05-16T05:04:52;6.23;;;2.10;;
13238;SDS011;6686;51.292;4.166;2023-05-16T05:07:35;9.00;;;2.50;;
13238;SDS011;6686;51.292;4.166;2023-05-16T05:10:21;6.30;;;2.60;;
13238;SDS011;6686;51.292;4.166;2023-05-16T05:13:07;10.37;;;2.63;;
13238;SDS011;6686;51.292;4.166;2023-05-16T05:15:53;6.73;;;2.00;;
13238;SDS011;6686;51.292;4.166;2023-05-16T05:18:39;4.60;;;2.27;;
13238;SDS011;6686;51.292;4.166;2023-05-16T05:21:24;12.03;;;2.50;;
13238;SDS011;6686;51.292;4.166;2023-05-16T05:24:10;7.70;;;2.07;;
13238;SDS011;6686;51.292;4.166;2023-05-16T05:26:56;7.47;;;2.50;;
13238;SDS011;6686;51.292;4.166;2023-05-16T05:29:42;7.47;;;2.10;;
13238;SDS011;6686;51.292;4.166;2023-05-16T05:32:28;5.20;;;2.00;;
13238;SDS011;6686;51.292;4.166;2023-05-16T05:35:14;7.20;;;2.20;;
13238;SDS011;6686;51.292;4.166;2023-05-16T05:38:00;6.87;;;1.90;;
13238;SDS011;6686;51.292;4.166;2023-05-16T05:40:46;4.70;;;1.97;;
13238;SDS011;6686;51.292;4.166;2023-05-16T05:43:32;10.00;;;2.43;;
13238;SDS011;6686;51.292;4.166;2023-05-16T05:46:18;9.37;;;2.17;;
13238;SDS011;6686;51.292;4.166;2023-05-16T05:49:04;7.43;;;1.90;;
13238;SDS011;6686;51.292;4.166;2023-05-16T05:51:50;7.60;;;1.83;;
13238;SDS011;6686;51.292;4.166;2023-05-16T05:54:36;11.53;;;2.40;;
13238;SDS011;6686;51.292;4.166;2023-05-16T05:57:22;6.33;;;1.90;;
13238;SDS011;6686;51.292;4.166;2023-05-16T06:00:08;6.47;;;2.23;;
13238;SDS011;6686;51.292;4.166;2023-05-16T06:02:54;7.63;;;2.03;;
13238;SDS011;6686;51.292;4.166;2023-05-16T06:05:40;9.40;;;2.30;;
13238;SDS011;6686;51.292;4.166;2023-05-16T06:08:26;8.33;;;2.13;;
13238;SDS011;6686;51.292;4.166;2023-05-16T06:11:12;6.53;;;2.50;;
13238;SDS011;6686;51.292;4.166;2023-05-16T06:13:58;7.43;;;2.00;;
13238;SDS011;6686;51.292;4.166;2023-05-16T06:16:43;8.20;;;2.10;;
13238;SDS011;6686;51.292;4.166;2023-05-16T06:19:29;6.07;;;2.03;;
13238;SDS011;6686;51.292;4.166;2023-05-16T06:22:15;5.23;;;1.60;;
13238;SDS011;6686;51.292;4.166;2023-05-16T06:25:01;7.33;;;1.50;;
13238;SDS011;6686;51.292;4.166;2023-05-16T06:27:47;6.03;;;1.60;;
13238;SDS011;6686;51.292;4.166;2023-05-16T06:30:32;5.30;;;1.70;;
13238;SDS011;6686;51.292;4.166;2023-05-16T06:33:18;5.33;;;1.87;;
13238;SDS011;6686;51.292;4.166;2023-05-16T06:36:04;6.53;;;1.97;;
13238;SDS011;6686;51.292;4.166;2023-05-16T06:38:50;3.23;;;1.43;;
13238;SDS011;6686;51.292;4.166;2023-05-16T06:41:36;4.90;;;1.75;;
13238;SDS011;6686;51.292;4.166;2023-05-16T06:44:22;4.53;;;1.60;;
13238;SDS011;6686;51.292;4.166;2023-05-16T06:47:08;3.03;;;1.40;;
13238;SDS011;6686;51.292;4.166;2023-05-16T06:49:54;4.57;;;1.50;;
13238;SDS011;6686;51.292;4.166;2023-05-16T06:52:40;10.70;;;2.50;;
13238;SDS011;6686;51.292;4.166;2023-05-16T06:55:25;4.27;;;1.63;;
13238;SDS011;6686;51.292;4.166;2023-05-16T06:58:11;3.37;;;1.60;;
13238;SDS011;6686;51.292;4.166;2023-05-16T07:00:58;6.63;;;1.47;;
13238;SDS011;6686;51.292;4.166;2023-05-16T07:03:44;5.37;;;1.80;;
13238;SDS011;6686;51.292;4.166;2023-05-16T07:06:29;5.00;;;1.70;;
13238;SDS011;6686;51.292;4.166;2023-05-16T07:09:15;7.77;;;1.77;;
13238;SDS011;6686;51.292;4.166;2023-05-16T07:12:01;6.20;;;1.67;;
13238;SDS011;6686;51.292;4.166;2023-05-16T07:14:47;7.97;;;1.80;;
13238;SDS011;6686;51.292;4.166;2023-05-16T07:17:33;4.90;;;1.70;;
13238;SDS011;6686;51.292;4.166;2023-05-16T07:20:18;4.43;;;1.40;;
13238;SDS011;6686;51.292;4.166;2023-05-16T07:23:04;4.83;;;1.60;;
13238;SDS011;6686;51.292;4.166;2023-05-16T07:25:50;4.30;;;1.50;;
13238;SDS011;6686;51.292;4.166;2023-05-16T07:28:36;3.23;;;2.03;;
13238;SDS011;6686;51.292;4.166;2023-05-16T07:31:22;4.57;;;1.67;;
13238;SDS011;6686;51.292;4.166;2023-05-16T07:34:09;6.20;;;1.60;;
13238;SDS011;6686;51.292;4.166;2023-05-16T07:36:54;7.07;;;1.70;;
13238;SDS011;6686;51.292;4.166;2023-05-16T07:39:40;3.33;;;1.40;;
13238;SDS011;6686;51.292;4.166;2023-05-16T07:42:26;6.27;;;1.30;;
13238;SDS011;6686;51.292;4.166;2023-05-16T07:45:12;8.50;;;1.63;;
13238;SDS011;6686;51.292;4.166;2023-05-16T07:47:58;3.77;;;1.50;;
13238;SDS011;6686;51.292;4.166;2023-05-16T07:50:43;5.30;;;1.40;;
13238;SDS011;6686;51.292;4.166;2023-05-16T07:53:30;5.37;;;1.73;;
13238;SDS011;6686;51.292;4.166;2023-05-16T07:56:15;3.60;;;1.77;;
13238;SDS011;6686;51.292;4.166;2023-05-16T07:59:01;2.97;;;1.27;;
13238;SDS011;6686;51.292;4.166;2023-05-16T08:01:47;5.00;;;1.30;;
13238;SDS011;6686;51.292;4.166;2023-05-16T08:04:33;2.97;;;1.20;;
13238;SDS011;6686;51.292;4.166;2023-05-16T08:07:19;6.60;;;1.83;;
13238;SDS011;6686;51.292;4.166;2023-05-16T08:10:05;4.60;;;1.57;;
13238;SDS011;6686;51.292;4.166;2023-05-16T08:12:51;6.37;;;1.90;;
13238;SDS011;6686;51.292;4.166;2023-05-16T08:15:36;6.30;;;1.50;;
13238;SDS011;6686;51.292;4.166;2023-05-16T08:18:23;3.97;;;1.47;;
13238;SDS011;6686;51.292;4.166;2023-05-16T08:21:08;4.53;;;1.43;;
13238;SDS011;6686;51.292;4.166;2023-05-16T08:23:54;6.00;;;1.93;;
13238;SDS011;6686;51.292;4.166;2023-05-16T08:26:40;4.40;;;1.77;;
13238;SDS011;6686;51.292;4.166;2023-05-16T08:29:26;2.90;;;1.23;;
13238;SDS011;6686;51.292;4.166;2023-05-16T08:32:12;1.87;;;1.20;;
13238;SDS011;6686;51.292;4.166;2023-05-16T08:34:59;4.83;;;1.73;;
13238;SDS011;6686;51.292;4.166;2023-05-16T08:37:44;2.50;;;1.20;;
13238;SDS011;6686;51.292;4.166;2023-05-16T08:40:30;4.53;;;1.40;;
13238;SDS011;6686;51.292;4.166;2023-05-16T08:43:16;4.57;;;1.37;;
13238;SDS011;6686;51.292;4.166;2023-05-16T08:46:02;4.55;;;1.70;;
13238;SDS011;6686;51.292;4.166;2023-05-16T08:48:51;5.50;;;1.70;;
13238;SDS011;6686;51.292;4.166;2023-05-16T08:51:37;6.83;;;1.90;;
13238;SDS011;6686;51.292;4.166;2023-05-16T08:54:22;4.07;;;1.63;;
13238;SDS011;6686;51.292;4.166;2023-05-16T08:57:08;4.13;;;1.60;;
13238;SDS011;6686;51.292;4.166;2023-05-16T08:59:55;6.10;;;1.60;;
13238;SDS011;6686;51.292;4.166;2023-05-16T09:02:40;5.63;;;1.53;;
13238;SDS011;6686;51.292;4.166;2023-05-16T09:05:25;3.33;;;1.33;;
13238;SDS011;6686;51.292;4.166;2023-05-16T09:08:12;4.70;;;1.40;;
13238;SDS011;6686;51.292;4.166;2023-05-16T09:10:58;4.07;;;1.27;;
13238;SDS011;6686;51.292;4.166;2023-05-16T09:13:43;3.83;;;1.60;;
13238;SDS011;6686;51.292;4.166;2023-05-16T09:16:29;3.80;;;1.17;;
13238;SDS011;6686;51.292;4.166;2023-05-16T09:19:15;5.40;;;1.60;;
13238;SDS011;6686;51.292;4.166;2023-05-16T09:22:01;6.20;;;1.60;;
13238;SDS011;6686;51.292;4.166;2023-05-16T09:24:46;7.50;;;1.90;;
13238;SDS011;6686;51.292;4.166;2023-05-16T09:27:32;3.77;;;1.20;;
13238;SDS011;6686;51.292;4.166;2023-05-16T09:30:28;4.57;;;1.60;;
13238;SDS011;6686;51.292;4.166;2023-05-16T09:33:13;3.95;;;1.60;;
13238;SDS011;6686;51.292;4.166;2023-05-16T09:36:00;5.93;;;1.40;;
13238;SDS011;6686;51.292;4.166;2023-05-16T09:38:45;3.90;;;1.60;;
13238;SDS011;6686;51.292;4.166;2023-05-16T09:41:34;4.40;;;1.53;;
13238;SDS011;6686;51.292;4.166;2023-05-16T09:44:21;5.60;;;1.43;;
13238;SDS011;6686;51.292;4.166;2023-05-16T09:47:06;3.50;;;1.30;;
13238;SDS011;6686;51.292;4.166;2023-05-16T09:49:52;3.93;;;1.37;;
13238;SDS011;6686;51.292;4.166;2023-05-16T09:52:38;4.33;;;1.50;;
13238;SDS011;6686;51.292;4.166;2023-05-16T09:55:24;4.43;;;1.50;;
13238;SDS011;6686;51.292;4.166;2023-05-16T09:58:10;2.40;;;1.30;;
13238;SDS011;6686;51.292;4.166;2023-05-16T10:00:55;6.70;;;1.57;;
13238;SDS011;6686;51.292;4.166;2023-05-16T10:03:42;7.57;;;1.87;;
13238;SDS011;6686;51.292;4.166;2023-05-16T10:06:26;6.82;;;1.70;;
13238;SDS011;6686;51.292;4.166;2023-05-16T10:09:12;4.07;;;1.80;;
13238;SDS011;6686;51.292;4.166;2023-05-16T10:12:02;6.43;;;2.13;;
13238;SDS011;6686;51.292;4.166;2023-05-16T10:14:47;3.53;;;1.50;;
13238;SDS011;6686;51.292;4.166;2023-05-16T10:17:34;3.33;;;1.53;;
13238;SDS011;6686;51.292;4.166;2023-05-16T10:20:20;2.90;;;1.50;;
13238;SDS011;6686;51.292;4.166;2023-05-16T10:23:06;4.47;;;1.47;;
13238;SDS011;6686;51.292;4.166;2023-05-16T10:25:52;3.90;;;1.90;;
13238;SDS011;6686;51.292;4.166;2023-05-16T10:28:38;4.63;;;1.47;;
13238;SDS011;6686;51.292;4.166;2023-05-16T10:31:24;5.20;;;1.43;;
13238;SDS011;6686;51.292;4.166;2023-05-16T10:34:10;5.93;;;1.67;;
13238;SDS011;6686;51.292;4.166;2023-05-16T10:36:55;2.30;;;1.20;;
13238;SDS011;6686;51.292;4.166;2023-05-16T10:39:41;5.17;;;1.60;;
13238;SDS011;6686;51.292;4.166;2023-05-16T10:42:27;4.80;;;1.47;;
13238;SDS011;6686;51.292;4.166;2023-05-16T10:45:16;4.80;;;1.30;;
13238;SDS011;6686;51.292;4.166;2023-05-16T10:48:04;3.70;;;1.33;;
13238;SDS011;6686;51.292;4.166;2023-05-16T10:50:53;5.00;;;1.93;;
13238;SDS011;6686;51.292;4.166;2023-05-16T10:53:38;4.83;;;1.77;;
13238;SDS011;6686;51.292;4.166;2023-05-16T10:56:25;4.17;;;1.40;;
13238;SDS011;6686;51.292;4.166;2023-05-16T10:59:23;5.63;;;1.80;;
13238;SDS011;6686;51.292;4.166;2023-05-16T11:02:24;3.57;;;1.57;;
13238;SDS011;6686;51.292;4.166;2023-05-16T11:05:11;2.93;;;1.40;;
13238;SDS011;6686;51.292;4.166;2023-05-16T11:08:01;2.47;;;1.30;;
13238;SDS011;6686;51.292;4.166;2023-05-16T11:10:49;6.73;;;1.50;;
13238;SDS011;6686;51.292;4.166;2023-05-16T11:13:35;3.27;;;1.33;;
13238;SDS011;6686;51.292;4.166;2023-05-16T11:16:27;4.73;;;1.57;;
13238;SDS011;6686;51.292;4.166;2023-05-16T11:19:13;8.37;;;2.87;;
13238;SDS011;6686;51.292;4.166;2023-05-16T11:22:06;5.93;;;1.70;;
13238;SDS011;6686;51.292;4.166;2023-05-16T11:27:44;3.57;;;1.80;;
13238;SDS011;6686;51.292;4.166;2023-05-16T11:30:32;6.10;;;1.70;;
13238;SDS011;6686;51.292;4.166;2023-05-16T11:33:19;3.20;;;1.43;;
13238;SDS011;6686;51.292;4.166;2023-05-16T11:36:06;6.07;;;1.85;;
13238;SDS011;6686;51.292;4.166;2023-05-16T11:38:50;4.50;;;1.53;;
13238;SDS011;6686;51.292;4.166;2023-05-16T11:41:36;4.10;;;1.90;;
13238;SDS011;6686;51.292;4.166;2023-05-16T11:44:22;5.87;;;1.90;;
13238;SDS011;6686;51.292;4.166;2023-05-16T11:47:08;5.20;;;1.53;;
13238;SDS011;6686;51.292;4.166;2023-05-16T11:49:56;3.93;;;1.90;;
13238;SDS011;6686;51.292;4.166;2023-05-16T11:52:50;2.47;;;1.53;;
13238;SDS011;6686;51.292;4.166;2023-05-16T11:55:38;3.17;;;1.60;;
13238;SDS011;6686;51.292;4.166;2023-05-16T11:58:24;3.57;;;1.67;;
13238;SDS011;6686;51.292;4.166;2023-05-16T12:01:10;4.80;;;1.93;;
13238;SDS011;6686;51.292;4.166;2023-05-16T12:03:56;3.93;;;1.47;;
13238;SDS011;6686;51.292;4.166;2023-05-16T12:06:42;4.10;;;1.77;;
13238;SDS011;6686;51.292;4.166;2023-05-16T12:09:30;5.00;;;1.67;;
13238;SDS011;6686;51.292;4.166;2023-05-16T12:12:16;4.87;;;1.80;;
13238;SDS011;6686;51.292;4.166;2023-05-16T12:15:02;5.83;;;2.40;;
13238;SDS011;6686;51.292;4.166;2023-05-16T12:17:52;4.60;;;1.40;;
13238;SDS011;6686;51.292;4.166;2023-05-16T12:20:37;5.00;;;1.60;;
13238;SDS011;6686;51.292;4.166;2023-05-16T12:23:24;3.60;;;1.40;;
13238;SDS011;6686;51.292;4.166;2023-05-16T12:26:10;7.53;;;1.90;;
13238;SDS011;6686;51.292;4.166;2023-05-16T12:28:56;4.97;;;2.00;;
13238;SDS011;6686;51.292;4.166;2023-05-16T12:31:41;4.53;;;1.47;;
13238;SDS011;6686;51.292;4.166;2023-05-16T12:34:28;4.70;;;1.83;;
13238;SDS011;6686;51.292;4.166;2023-05-16T12:37:13;3.90;;;1.67;;
13238;SDS011;6686;51.292;4.166;2023-05-16T12:39:59;3.93;;;1.80;;
13238;SDS011;6686;51.292;4.166;2023-05-16T12:42:49;5.50;;;1.60;;
13238;SDS011;6686;51.292;4.166;2023-05-16T12:45:34;4.32;;;1.70;;
13238;SDS011;6686;51.292;4.166;2023-05-16T12:48:20;4.20;;;1.33;;
13238;SDS011;6686;51.292;4.166;2023-05-16T12:51:10;4.70;;;1.20;;
13238;SDS011;6686;51.292;4.166;2023-05-16T12:53:55;4.17;;;1.50;;
13238;SDS011;6686;51.292;4.166;2023-05-16T12:56:41;3.70;;;1.70;;
13238;SDS011;6686;51.292;4.166;2023-05-16T12:59:28;2.47;;;1.60;;
13238;SDS011;6686;51.292;4.166;2023-05-16T13:02:14;2.93;;;1.43;;
13238;SDS011;6686;51.292;4.166;2023-05-16T13:05:00;2.97;;;1.17;;
13238;SDS011;6686;51.292;4.166;2023-05-16T13:07:46;3.60;;;1.63;;
13238;SDS011;6686;51.292;4.166;2023-05-16T13:10:31;3.37;;;1.27;;
13238;SDS011;6686;51.292;4.166;2023-05-16T13:13:17;2.73;;;1.30;;
13238;SDS011;6686;51.292;4.166;2023-05-16T13:16:03;4.30;;;1.30;;
13238;SDS011;6686;51.292;4.166;2023-05-16T13:18:48;3.83;;;1.40;;
13238;SDS011;6686;51.292;4.166;2023-05-16T13:21:34;3.80;;;1.37;;
13238;SDS011;6686;51.292;4.166;2023-05-16T13:24:20;5.37;;;1.30;;
13238;SDS011;6686;51.292;4.166;2023-05-16T13:27:06;4.47;;;1.20;;
13238;SDS011;6686;51.292;4.166;2023-05-16T13:29:51;5.00;;;1.27;;
13238;SDS011;6686;51.292;4.166;2023-05-16T13:32:37;2.43;;;1.43;;
13238;SDS011;6686;51.292;4.166;2023-05-16T13:35:23;4.53;;;1.30;;
13238;SDS011;6686;51.292;4.166;2023-05-16T13:38:09;2.92;;;1.40;;
13238;SDS011;6686;51.292;4.166;2023-05-16T13:40:55;4.10;;;1.60;;
13238;SDS011;6686;51.292;4.166;2023-05-16T13:43:40;3.70;;;1.50;;
13238;SDS011;6686;51.292;4.166;2023-05-16T13:46:26;6.00;;;1.63;;
13238;SDS011;6686;51.292;4.166;2023-05-16T13:49:12;3.70;;;1.07;;
13238;SDS011;6686;51.292;4.166;2023-05-16T13:51:58;4.80;;;1.27;;
13238;SDS011;6686;51.292;4.166;2023-05-16T13:54:44;2.40;;;1.10;;
13238;SDS011;6686;51.292;4.166;2023-05-16T13:57:30;3.13;;;1.40;;
13238;SDS011;6686;51.292;4.166;2023-05-16T14:00:15;2.77;;;1.00;;
13238;SDS011;6686;51.292;4.166;2023-05-16T14:03:04;2.90;;;1.50;;
13238;SDS011;6686;51.292;4.166;2023-05-16T14:05:50;4.37;;;1.13;;
13238;SDS011;6686;51.292;4.166;2023-05-16T14:08:37;5.63;;;2.00;;
13238;SDS011;6686;51.292;4.166;2023-05-16T14:11:22;3.47;;;1.40;;
13238;SDS011;6686;51.292;4.166;2023-05-16T14:14:09;4.07;;;1.40;;
13238;SDS011;6686;51.292;4.166;2023-05-16T14:16:55;5.50;;;1.60;;
13238;SDS011;6686;51.292;4.166;2023-05-16T14:19:41;5.63;;;1.83;;
13238;SDS011;6686;51.292;4.166;2023-05-16T14:22:27;3.10;;;1.43;;
13238;SDS011;6686;51.292;4.166;2023-05-16T14:25:13;4.07;;;1.43;;
13238;SDS011;6686;51.292;4.166;2023-05-16T14:27:59;5.20;;;1.60;;
13238;SDS011;6686;51.292;4.166;2023-05-16T14:30:45;3.57;;;1.43;;
13238;SDS011;6686;51.292;4.166;2023-05-16T14:33:31;5.12;;;1.60;;
13238;SDS011;6686;51.292;4.166;2023-05-16T14:36:17;3.13;;;1.60;;
13238;SDS011;6686;51.292;4.166;2023-05-16T14:39:02;4.87;;;1.53;;
13238;SDS011;6686;51.292;4.166;2023-05-16T14:41:48;3.70;;;1.20;;
13238;SDS011;6686;51.292;4.166;2023-05-16T14:44:34;3.23;;;1.50;;
13238;SDS011;6686;51.292;4.166;2023-05-16T14:47:20;6.13;;;1.57;;
13238;SDS011;6686;51.292;4.166;2023-05-16T14:50:07;4.50;;;1.53;;
13238;SDS011;6686;51.292;4.166;2023-05-16T14:52:52;2.27;;;1.40;;
13238;SDS011;6686;51.292;4.166;2023-05-16T14:55:38;4.60;;;1.70;;
13238;SDS011;6686;51.292;4.166;2023-05-16T14:58:24;3.67;;;1.13;;
13238;SDS011;6686;51.292;4.166;2023-05-16T15:01:10;2.87;;;1.20;;
13238;SDS011;6686;51.292;4.166;2023-05-16T15:03:56;2.70;;;1.30;;
13238;SDS011;6686;51.292;4.166;2023-05-16T15:06:42;3.03;;;1.00;;
13238;SDS011;6686;51.292;4.166;2023-05-16T15:09:28;2.93;;;0.97;;
13238;SDS011;6686;51.292;4.166;2023-05-16T15:12:14;2.87;;;1.20;;
13238;SDS011;6686;51.292;4.166;2023-05-16T15:15:00;3.77;;;1.40;;
13238;SDS011;6686;51.292;4.166;2023-05-16T15:17:46;2.47;;;1.20;;
13238;SDS011;6686;51.292;4.166;2023-05-16T15:20:32;5.23;;;1.33;;
13238;SDS011;6686;51.292;4.166;2023-05-16T15:23:18;5.20;;;1.30;;
13238;SDS011;6686;51.292;4.166;2023-05-16T15:26:05;2.83;;;1.27;;
13238;SDS011;6686;51.292;4.166;2023-05-16T15:28:52;4.50;;;1.77;;
13238;SDS011;6686;51.292;4.166;2023-05-16T15:31:38;4.10;;;1.30;;
13238;SDS011;6686;51.292;4.166;2023-05-16T15:34:24;3.87;;;1.60;;
13238;SDS011;6686;51.292;4.166;2023-05-16T15:37:10;3.53;;;1.50;;
13238;SDS011;6686;51.292;4.166;2023-05-16T15:39:56;1.60;;;1.20;;
13238;SDS011;6686;51.292;4.166;2023-05-16T15:42:42;2.23;;;1.20;;
13238;SDS011;6686;51.292;4.166;2023-05-16T15:45:28;4.73;;;1.33;;
13238;SDS011;6686;51.292;4.166;2023-05-16T15:48:14;2.45;;;1.20;;
13238;SDS011;6686;51.292;4.166;2023-05-16T15:50:59;1.90;;;0.80;;
13238;SDS011;6686;51.292;4.166;2023-05-16T15:53:46;1.87;;;1.17;;
13238;SDS011;6686;51.292;4.166;2023-05-16T15:56:31;2.37;;;1.47;;
13238;SDS011;6686;51.292;4.166;2023-05-16T15:59:17;2.97;;;1.00;;
13238;SDS011;6686;51.292;4.166;2023-05-16T16:02:03;3.10;;;1.47;;
13238;SDS011;6686;51.292;4.166;2023-05-16T16:04:49;2.90;;;1.40;;
13238;SDS011;6686;51.292;4.166;2023-05-16T16:07:35;2.13;;;1.10;;
13238;SDS011;6686;51.292;4.166;2023-05-16T16:10:21;2.83;;;1.43;;
13238;SDS011;6686;51.292;4.166;2023-05-16T16:13:07;5.47;;;2.97;;
13238;SDS011;6686;51.292;4.166;2023-05-16T16:15:53;2.33;;;1.33;;
13238;SDS011;6686;51.292;4.166;2023-05-16T16:18:39;3.73;;;1.20;;
13238;SDS011;6686;51.292;4.166;2023-05-16T16:21:25;4.13;;;1.30;;
13238;SDS011;6686;51.292;4.166;2023-05-16T16:24:11;2.23;;;1.10;;
13238;SDS011;6686;51.292;4.166;2023-05-16T16:26:57;3.13;;;1.40;;
13238;SDS011;6686;51.292;4.166;2023-05-16T16:29:43;4.00;;;1.50;;
13238;SDS011;6686;51.292;4.166;2023-05-16T16:32:29;2.47;;;1.80;;
13238;SDS011;6686;51.292;4.166;2023-05-16T16:35:14;2.90;;;1.37;;
13238;SDS011;6686;51.292;4.166;2023-05-16T16:38:00;1.43;;;1.30;;
13238;SDS011;6686;51.292;4.166;2023-05-16T16:40:46;3.10;;;1.53;;
13238;SDS011;6686;51.292;4.166;2023-05-16T16:43:32;4.23;;;1.70;;
13238;SDS011;6686;51.292;4.166;2023-05-16T16:46:18;4.30;;;1.60;;
13238;SDS011;6686;51.292;4.166;2023-05-16T16:49:04;4.23;;;1.80;;
13238;SDS011;6686;51.292;4.166;2023-05-16T16:51:50;4.30;;;1.80;;
13238;SDS011;6686;51.292;4.166;2023-05-16T16:54:36;6.17;;;1.90;;
13238;SDS011;6686;51.292;4.166;2023-05-16T16:57:22;2.53;;;1.63;;
13238;SDS011;6686;51.292;4.166;2023-05-16T17:00:08;4.30;;;1.90;;
13238;SDS011;6686;51.292;4.166;2023-05-16T17:02:54;1.97;;;1.57;;
13238;SDS011;6686;51.292;4.166;2023-05-16T17:05:39;5.53;;;2.53;;
13238;SDS011;6686;51.292;4.166;2023-05-16T17:08:25;3.53;;;2.07;;
13238;SDS011;6686;51.292;4.166;2023-05-16T17:11:11;4.23;;;2.10;;